Time;durP1;ratioP1;P1;durP2;ratioP2;P2;SDS_P1;SDS_P2;PMS_P1;PMS_P2;Temp;Humidity;BMP_temperature;BMP_pressure;BME280_temperature;BME280_humidity;BME280_pressure;Samples;Min_cycle;Max_cycle;Signal;HPM_P1;HPM_P2
2023/09/28 00:02:45;;;;;;;4.55;2.70;;;;;;;;;;5031247;28;20038;-69
2023/09/28 00:05:16;;;;;;;8.82;3.00;;;;;;;;;;5031150;28;20113;-69
2023/09/28 00:07:44;;;;;;;12.82;3.35;;;;;;;;;;5030008;28;20049;-69
2023/09/28 00:10:13;;;;;;;10.13;3.30;;;;;;;;;;5031036;28;20048;-70
2023/09/28 00:12:41;;;;;;;11.57;3.65;;;;;;;;;;5031126;28;20487;-69
2023/09/28 00:15:10;;;;;;;10.50;3.78;;;;;;;;;;5031169;28;20042;-69
2023/09/28 00:17:38;;;;;;;6.53;3.08;;;;;;;;;;5031164;28;20056;-69
2023/09/28 00:20:16;;;;;;;8.93;3.33;;;;;;;;;;5030889;28;20487;-69
2023/09/28 00:22:51;;;;;;;7.45;2.75;;;;;;;;;;5031029;28;20437;-69
2023/09/28 00:25:19;;;;;;;7.32;3.00;;;;;;;;;;5031055;28;20045;-69
2023/09/28 00:27:50;;;;;;;9.60;3.28;;;;;;;;;;5030782;28;20042;-70
2023/09/28 00:30:22;;;;;;;5.18;2.90;;;;;;;;;;5029558;28;20413;-70
2023/09/28 00:32:50;;;;;;;7.13;3.10;;;;;;;;;;5029460;28;20049;-70
2023/09/28 00:35:18;;;;;;;11.00;2.90;;;;;;;;;;5029864;28;20565;-69
2023/09/28 00:37:46;;;;;;;12.32;3.40;;;;;;;;;;5030330;28;20041;-69
2023/09/28 00:40:23;;;;;;;9.30;3.50;;;;;;;;;;5028597;28;20046;-69
2023/09/28 00:42:51;;;;;;;8.70;3.80;;;;;;;;;;5029404;28;20041;-70
2023/09/28 00:45:20;;;;;;;8.68;3.40;;;;;;;;;;5029493;28;20495;-70
2023/09/28 00:47:49;;;;;;;11.63;3.40;;;;;;;;;;5029300;28;20069;-70
2023/09/28 00:50:17;;;;;;;10.65;3.13;;;;;;;;;;5029311;28;20045;-70
2023/09/28 00:52:55;;;;;;;4.80;3.17;;;;;;;;;;5029376;28;20050;-69
2023/09/28 00:55:27;;;;;;;7.70;3.03;;;;;;;;;;5029167;28;20049;-69
2023/09/28 00:57:58;;;;;;;12.18;3.40;;;;;;;;;;5029110;28;20052;-69
2023/09/28 01:00:29;;;;;;;9.45;3.47;;;;;;;;;;5029117;28;20056;-69
2023/09/28 01:02:58;;;;;;;6.75;3.17;;;;;;;;;;5030401;28;20108;-70
2023/09/28 01:05:27;;;;;;;5.68;3.17;;;;;;;;;;5030293;28;20082;-69
2023/09/28 01:07:56;;;;;;;9.32;3.20;;;;;;;;;;5028961;28;20041;-69
2023/09/28 01:10:24;;;;;;;10.45;3.28;;;;;;;;;;5011307;28;20445;-69
2023/09/28 01:12:51;;;;;;;8.68;3.40;;;;;;;;;;5008923;28;20054;-70
2023/09/28 01:15:19;;;;;;;7.20;3.10;;;;;;;;;;5009155;28;20495;-70
2023/09/28 01:17:47;;;;;;;11.25;3.75;;;;;;;;;;4992970;28;20056;-70
2023/09/28 01:22:49;;;;;;;6.55;3.03;;;;;;;;;;5010157;28;20512;-69
2023/09/28 01:25:20;;;;;;;8.23;4.18;;;;;;;;;;5009234;28;20061;-69
2023/09/28 01:27:52;;;;;;;14.57;3.67;;;;;;;;;;5010208;28;20042;-70
2023/09/28 01:30:20;;;;;;;10.75;4.20;;;;;;;;;;5009267;28;20469;-69
2023/09/28 01:32:48;;;;;;;8.52;3.13;;;;;;;;;;5008853;28;20057;-69
2023/09/28 01:35:16;;;;;;;11.18;3.50;;;;;;;;;;5008990;28;20052;-69
2023/09/28 01:37:50;;;;;;;8.43;3.45;;;;;;;;;;5008977;28;20091;-68
2023/09/28 01:40:19;;;;;;;9.05;3.50;;;;;;;;;;5008620;28;20050;-69
2023/09/28 01:42:46;;;;;;;13.77;4.43;;;;;;;;;;5010123;28;20049;-69
2023/09/28 01:45:15;;;;;;;7.13;3.63;;;;;;;;;;5008736;28;20060;-69
2023/09/28 01:47:42;;;;;;;8.07;3.47;;;;;;;;;;5009937;28;20510;-69
2023/09/28 01:50:10;;;;;;;7.47;3.22;;;;;;;;;;5008684;28;20045;-69
2023/09/28 01:52:37;;;;;;;8.65;4.13;;;;;;;;;;5008369;28;20495;-69
2023/09/28 01:55:05;;;;;;;9.05;3.72;;;;;;;;;;5008581;28;20064;-69
2023/09/28 01:57:32;;;;;;;7.47;3.33;;;;;;;;;;5008489;28;20506;-69
2023/09/28 02:00:00;;;;;;;13.55;4.53;;;;;;;;;;5008499;28;20046;-69
2023/09/28 02:02:29;;;;;;;10.32;4.00;;;;;;;;;;5009838;28;20125;-68
2023/09/28 02:04:57;;;;;;;10.57;4.03;;;;;;;;;;5009891;28;20049;-68
2023/09/28 02:07:25;;;;;;;8.52;4.07;;;;;;;;;;5008339;28;20512;-68
2023/09/28 02:09:53;;;;;;;9.15;4.35;;;;;;;;;;5009775;28;20046;-69
2023/09/28 02:12:20;;;;;;;9.80;3.90;;;;;;;;;;5008291;28;20061;-69
2023/09/28 02:14:48;;;;;;;15.20;3.90;;;;;;;;;;5008473;28;20100;-69
2023/09/28 02:17:15;;;;;;;10.80;4.55;;;;;;;;;;5008331;28;20061;-69
2023/09/28 02:19:43;;;;;;;6.20;3.90;;;;;;;;;;5008198;28;20044;-69
2023/09/28 02:22:11;;;;;;;8.30;4.22;;;;;;;;;;5008273;28;20392;-69
2023/09/28 02:24:39;;;;;;;9.18;3.90;;;;;;;;;;5009406;28;20383;-69
2023/09/28 02:27:06;;;;;;;8.57;3.67;;;;;;;;;;5008224;28;20050;-69
2023/09/28 02:29:34;;;;;;;8.38;3.90;;;;;;;;;;5008348;28;20534;-69
2023/09/28 02:32:01;;;;;;;12.30;4.60;;;;;;;;;;5008185;28;20046;-69
2023/09/28 02:34:29;;;;;;;7.53;3.97;;;;;;;;;;5009505;28;20080;-69
2023/09/28 02:36:57;;;;;;;10.57;4.03;;;;;;;;;;5009280;28;20030;-69
2023/09/28 02:39:24;;;;;;;14.43;4.05;;;;;;;;;;5008030;28;20510;-69
2023/09/28 02:41:52;;;;;;;11.23;4.10;;;;;;;;;;5008081;28;20057;-69
2023/09/28 02:44:19;;;;;;;9.60;4.07;;;;;;;;;;5007940;28;20137;-69
2023/09/28 02:46:47;;;;;;;11.07;4.10;;;;;;;;;;5009154;28;20046;-69
2023/09/28 02:49:17;;;;;;;10.00;4.78;;;;;;;;;;5009265;28;20038;-69
2023/09/28 02:51:46;;;;;;;12.23;4.72;;;;;;;;;;5007912;28;20094;-69
2023/09/28 02:54:13;;;;;;;8.75;3.95;;;;;;;;;;5008999;28;20053;-69
2023/09/28 02:56:42;;;;;;;7.15;4.38;;;;;;;;;;5007913;28;20522;-69
2023/09/28 02:59:09;;;;;;;8.82;4.40;;;;;;;;;;5007822;28;20054;-69
2023/09/28 03:01:37;;;;;;;11.07;3.88;;;;;;;;;;5008935;28;20039;-69
2023/09/28 03:04:05;;;;;;;14.75;4.43;;;;;;;;;;5010726;28;20087;-70
2023/09/28 03:06:39;;;;;;;13.65;4.13;;;;;;;;;;5010962;28;20049;-69
2023/09/28 03:09:11;;;;;;;9.10;3.97;;;;;;;;;;5011146;28;20054;-69
2023/09/28 03:11:42;;;;;;;12.27;4.63;;;;;;;;;;5011046;28;20076;-69
2023/09/28 03:14:10;;;;;;;7.97;4.13;;;;;;;;;;5012389;28;20091;-69
2023/09/28 03:16:38;;;;;;;9.65;4.43;;;;;;;;;;5010940;28;20049;-69
2023/09/28 03:19:07;;;;;;;10.40;4.40;;;;;;;;;;5010981;28;20463;-69
2023/09/28 03:21:35;;;;;;;9.35;4.43;;;;;;;;;;5012203;28;20095;-69
2023/09/28 03:24:03;;;;;;;11.80;4.40;;;;;;;;;;5011963;28;20121;-69
2023/09/28 03:26:31;;;;;;;11.43;4.35;;;;;;;;;;5012105;28;20042;-69
2023/09/28 03:28:58;;;;;;;12.40;4.53;;;;;;;;;;5010799;28;20060;-69
2023/09/28 03:31:27;;;;;;;7.82;4.75;;;;;;;;;;5010700;28;20133;-69
2023/09/28 03:33:55;;;;;;;11.93;4.43;;;;;;;;;;5012017;28;20605;-69
2023/09/28 03:36:22;;;;;;;16.00;5.05;;;;;;;;;;5011841;28;20041;-66
2023/09/28 03:38:50;;;;;;;14.65;4.70;;;;;;;;;;5026107;28;20509;-70
2023/09/28 03:41:18;;;;;;;8.02;4.82;;;;;;;;;;5031576;28;20049;-70
2023/09/28 03:43:48;;;;;;;13.10;4.90;;;;;;;;;;5030952;28;20521;-71
2023/09/28 03:46:19;;;;;;;9.27;4.07;;;;;;;;;;5030913;28;20110;-70
2023/09/28 03:48:47;;;;;;;12.57;5.03;;;;;;;;;;5011503;28;20432;-72
2023/09/28 03:51:17;;;;;;;11.60;4.70;;;;;;;;;;5011844;28;20042;-70
2023/09/28 03:53:44;;;;;;;10.57;4.82;;;;;;;;;;5011682;28;20042;-70
2023/09/28 03:56:12;;;;;;;10.13;5.10;;;;;;;;;;5011547;28;20046;-71
2023/09/28 03:58:39;;;;;;;10.65;5.00;;;;;;;;;;5011578;28;20038;-71
2023/09/28 04:01:07;;;;;;;11.18;4.95;;;;;;;;;;5011516;28;20034;-72
2023/09/28 04:03:36;;;;;;;13.07;4.63;;;;;;;;;;5011779;28;20046;-71
2023/09/28 04:06:04;;;;;;;15.30;4.68;;;;;;;;;;5010517;28;20038;-71
2023/09/28 04:08:31;;;;;;;13.98;5.07;;;;;;;;;;5010859;28;20034;-71
2023/09/28 04:10:59;;;;;;;10.80;4.88;;;;;;;;;;5016116;28;20482;-71
2023/09/28 04:13:27;;;;;;;9.57;5.05;;;;;;;;;;5029665;28;20064;-70
2023/09/28 04:15:54;;;;;;;14.68;4.75;;;;;;;;;;5031132;28;20065;-70
2023/09/28 04:18:22;;;;;;;21.85;5.18;;;;;;;;;;5031014;28;20046;-70
2023/09/28 04:20:49;;;;;;;19.45;5.43;;;;;;;;;;5030870;28;20451;-71
2023/09/28 04:23:17;;;;;;;18.98;5.70;;;;;;;;;;5030275;28;20494;-72
2023/09/28 04:25:45;;;;;;;13.57;5.30;;;;;;;;;;5029483;28;20045;-70
2023/09/28 04:28:12;;;;;;;21.65;5.97;;;;;;;;;;5029940;28;20038;-70
2023/09/28 04:30:40;;;;;;;15.85;5.85;;;;;;;;;;5030225;28;20061;-70
2023/09/28 04:33:07;;;;;;;13.93;4.88;;;;;;;;;;5030344;28;20037;-70
2023/09/28 04:35:35;;;;;;;21.95;5.85;;;;;;;;;;5030467;28;20128;-70
2023/09/28 04:38:03;;;;;;;21.13;6.82;;;;;;;;;;5030496;28;20040;-65
2023/09/28 04:40:31;;;;;;;19.65;7.43;;;;;;;;;;5030582;28;20049;-69
2023/09/28 04:42:59;;;;;;;30.85;7.75;;;;;;;;;;5030678;28;20037;-69
2023/09/28 04:45:26;;;;;;;20.95;7.65;;;;;;;;;;5030866;28;20042;-70
2023/09/28 04:47:54;;;;;;;28.85;8.27;;;;;;;;;;5029423;28;20444;-70
2023/09/28 04:50:22;;;;;;;38.40;7.80;;;;;;;;;;5029470;28;20053;-70
2023/09/28 04:52:50;;;;;;;23.90;7.82;;;;;;;;;;5030306;28;20225;-73
2023/09/28 04:55:18;;;;;;;35.30;9.27;;;;;;;;;;5030197;28;20513;-70
2023/09/28 04:57:45;;;;;;;31.08;10.30;;;;;;;;;;5030641;28;20041;-70
2023/09/28 05:00:16;;;;;;;32.08;11.25;;;;;;;;;;5030363;28;20137;-70
2023/09/28 05:02:47;;;;;;;33.38;11.30;;;;;;;;;;5030514;28;20042;-70
2023/09/28 05:05:15;;;;;;;36.50;11.13;;;;;;;;;;5030477;28;20084;-70
2023/09/28 05:07:43;;;;;;;31.05;10.50;;;;;;;;;;5030341;28;20049;-70
2023/09/28 05:10:11;;;;;;;33.40;11.35;;;;;;;;;;5030412;28;20042;-70
2023/09/28 05:12:39;;;;;;;39.67;10.45;;;;;;;;;;5030246;28;20050;-70
2023/09/28 05:15:08;;;;;;;27.02;9.95;;;;;;;;;;5030166;28;20087;-70
2023/09/28 05:17:35;;;;;;;35.45;9.45;;;;;;;;;;5030316;28;20275;-70
2023/09/28 05:20:03;;;;;;;39.28;9.18;;;;;;;;;;5030233;28;20041;-69
2023/09/28 05:22:31;;;;;;;33.53;9.13;;;;;;;;;;5030177;28;20136;-69
2023/09/28 05:24:59;;;;;;;33.78;9.13;;;;;;;;;;5030482;28;20057;-70
2023/09/28 05:27:26;;;;;;;31.80;10.00;;;;;;;;;;5029644;28;20046;-69
2023/09/28 05:29:54;;;;;;;29.63;9.52;;;;;;;;;;5030490;28;20037;-69
2023/09/28 05:32:21;;;;;;;31.23;8.70;;;;;;;;;;5030288;28;20420;-70
2023/09/28 05:34:49;;;;;;;25.95;8.20;;;;;;;;;;5029971;28;20041;-70
2023/09/28 05:37:16;;;;;;;21.65;8.18;;;;;;;;;;5029933;28;20068;-70
2023/09/28 05:39:44;;;;;;;23.38;8.00;;;;;;;;;;5029860;28;20042;-70
2023/09/28 05:42:12;;;;;;;26.50;8.85;;;;;;;;;;5029797;28;20090;-70
2023/09/28 05:44:39;;;;;;;26.35;7.90;;;;;;;;;;5029885;28;20044;-70
2023/09/28 05:47:07;;;;;;;24.10;8.43;;;;;;;;;;5030271;28;20436;-70
2023/09/28 05:49:36;;;;;;;24.60;7.60;;;;;;;;;;5029755;28;20372;-70
2023/09/28 05:52:03;;;;;;;22.40;7.72;;;;;;;;;;5028684;28;20057;-70
2023/09/28 05:54:32;;;;;;;17.83;6.60;;;;;;;;;;5030176;28;20041;-70
2023/09/28 05:57:00;;;;;;;20.27;5.97;;;;;;;;;;5029878;28;20049;-70
2023/09/28 05:59:27;;;;;;;16.10;6.10;;;;;;;;;;5029554;28;20475;-70
2023/09/28 06:01:55;;;;;;;19.67;6.05;;;;;;;;;;5029211;28;20048;-70
2023/09/28 06:04:22;;;;;;;17.85;6.28;;;;;;;;;;5029444;28;20038;-70
2023/09/28 06:06:50;;;;;;;16.92;6.25;;;;;;;;;;5029468;28;20049;-70
2023/09/28 06:09:21;;;;;;;19.23;6.20;;;;;;;;;;5029589;28;20041;-70
2023/09/28 06:11:49;;;;;;;24.42;8.65;;;;;;;;;;5029384;28;20129;-70
2023/09/28 06:14:16;;;;;;;25.83;9.48;;;;;;;;;;5029534;28;20121;-70
2023/09/28 06:16:44;;;;;;;26.38;8.82;;;;;;;;;;5028395;28;20053;-70
2023/09/28 06:19:14;;;;;;;20.30;7.85;;;;;;;;;;5029348;28;20094;-70
2023/09/28 06:21:43;;;;;;;25.15;6.65;;;;;;;;;;5028137;28;20049;-70
2023/09/28 06:24:11;;;;;;;18.65;6.97;;;;;;;;;;5029282;28;20436;-70
2023/09/28 06:26:38;;;;;;;17.40;6.35;;;;;;;;;;5029341;28;20546;-70
2023/09/28 06:29:10;;;;;;;14.02;5.28;;;;;;;;;;5029238;28;20162;-71
2023/09/28 06:31:38;;;;;;;20.38;6.28;;;;;;;;;;5029375;28;20099;-70
2023/09/28 06:34:06;;;;;;;24.83;6.88;;;;;;;;;;5029220;28;20091;-71
2023/09/28 06:36:34;;;;;;;10.55;4.85;;;;;;;;;;5029336;28;20045;-71
2023/09/28 06:39:05;;;;;;;110.22;12.75;;;;;;;;;;5031137;28;20393;-70
2023/09/28 06:41:32;;;;;;;22.45;5.35;;;;;;;;;;5031407;28;20125;-71
2023/09/28 06:44:00;;;;;;;15.02;5.40;;;;;;;;;;5032558;28;20132;-71
2023/09/28 06:46:27;;;;;;;16.58;6.28;;;;;;;;;;5032544;28;20562;-71
2023/09/28 06:48:55;;;;;;;12.13;5.38;;;;;;;;;;5032527;28;20503;-71
2023/09/28 06:51:25;;;;;;;22.95;6.18;;;;;;;;;;5032575;28;20050;-71
2023/09/28 06:53:54;;;;;;;11.98;5.07;;;;;;;;;;5032500;28;20045;-72
2023/09/28 06:56:22;;;;;;;29.20;5.57;;;;;;;;;;5032445;28;20053;-72
2023/09/28 06:58:50;;;;;;;22.58;12.80;;;;;;;;;;5032435;28;20386;-71
2023/09/28 07:01:18;;;;;;;38.67;27.27;;;;;;;;;;5032349;28;20037;-71
2023/09/28 07:03:47;;;;;;;15.43;10.10;;;;;;;;;;5032276;28;20052;-71
2023/09/28 07:06:14;;;;;;;8.07;5.00;;;;;;;;;;5032322;28;20047;-71
2023/09/28 07:08:41;;;;;;;11.25;6.15;;;;;;;;;;5032347;28;20048;-71
2023/09/28 07:11:09;;;;;;;11.07;4.93;;;;;;;;;;5032076;28;20495;-71
2023/09/28 07:13:37;;;;;;;13.23;4.80;;;;;;;;;;5032258;28;20041;-70
2023/09/28 07:16:07;;;;;;;10.70;4.50;;;;;;;;;;5032119;28;20120;-70
2023/09/28 07:18:36;;;;;;;11.90;5.50;;;;;;;;;;5032172;28;20474;-70
2023/09/28 07:21:04;;;;;;;13.30;5.32;;;;;;;;;;5032022;28;20041;-70
2023/09/28 07:23:31;;;;;;;13.85;4.70;;;;;;;;;;5032028;28;20391;-70
2023/09/28 07:26:00;;;;;;;11.02;5.30;;;;;;;;;;5032046;28;20445;-70
2023/09/28 07:28:28;;;;;;;10.70;4.40;;;;;;;;;;5032026;28;20050;-70
2023/09/28 07:30:56;;;;;;;13.27;5.70;;;;;;;;;;5031949;28;20116;-70
2023/09/28 07:33:23;;;;;;;18.35;6.20;;;;;;;;;;5031842;28;20037;-69
2023/09/28 07:35:51;;;;;;;10.50;4.50;;;;;;;;;;5031743;28;20041;-69
2023/09/28 07:38:19;;;;;;;10.23;4.53;;;;;;;;;;5031754;28;20498;-69
2023/09/28 07:40:47;;;;;;;11.60;5.55;;;;;;;;;;5031754;28;20041;-69
2023/09/28 07:43:15;;;;;;;12.25;4.53;;;;;;;;;;5031765;28;20042;-70
2023/09/28 07:45:43;;;;;;;13.80;6.82;;;;;;;;;;5031692;28;20048;-70
2023/09/28 07:48:11;;;;;;;13.85;6.28;;;;;;;;;;5031460;28;20479;-70
2023/09/28 07:50:38;;;;;;;16.50;5.45;;;;;;;;;;5031419;28;20577;-70
2023/09/28 07:53:06;;;;;;;14.45;5.75;;;;;;;;;;5031713;28;20351;-69
2023/09/28 07:55:34;;;;;;;15.27;5.80;;;;;;;;;;5031537;28;20042;-70
2023/09/28 07:58:01;;;;;;;14.38;9.40;;;;;;;;;;5031516;28;20120;-69
2023/09/28 08:00:49;;;;;;;11.02;5.05;;;;;;;;;;5031296;28;20041;-70
2023/09/28 08:03:16;;;;;;;18.92;7.30;;;;;;;;;;5031490;28;20075;-69
2023/09/28 08:05:44;;;;;;;10.55;4.82;;;;;;;;;;5030205;28;20502;-69
2023/09/28 08:08:12;;;;;;;9.48;4.28;;;;;;;;;;5031538;28;20052;-69
2023/09/28 08:10:44;;;;;;;14.52;5.30;;;;;;;;;;5031094;28;20487;-69
2023/09/28 08:13:12;;;;;;;14.80;5.00;;;;;;;;;;5031122;28;20080;-69
2023/09/28 08:15:41;;;;;;;10.45;4.90;;;;;;;;;;5031158;28;20136;-69
2023/09/28 08:18:09;;;;;;;14.48;4.30;;;;;;;;;;5031005;28;20072;-69
2023/09/28 08:20:37;;;;;;;11.00;4.63;;;;;;;;;;5030852;28;20129;-69
2023/09/28 08:23:11;;;;;;;10.18;4.13;;;;;;;;;;5031088;28;20037;-69
2023/09/28 08:25:38;;;;;;;8.98;3.90;;;;;;;;;;5031128;28;20079;-69
2023/09/28 08:28:07;;;;;;;11.40;4.50;;;;;;;;;;5030953;28;20502;-70
2023/09/28 08:30:35;;;;;;;9.43;4.20;;;;;;;;;;5031003;28;20041;-69
2023/09/28 08:33:02;;;;;;;7.35;3.63;;;;;;;;;;5030698;28;20052;-70
2023/09/28 08:35:31;;;;;;;8.23;3.72;;;;;;;;;;5029928;28;20057;-70
2023/09/28 08:37:59;;;;;;;8.38;4.25;;;;;;;;;;5030694;28;20037;-69
2023/09/28 08:40:27;;;;;;;12.27;4.50;;;;;;;;;;5030680;28;20117;-69
2023/09/28 08:42:57;;;;;;;8.35;3.65;;;;;;;;;;5030717;28;20052;-69
2023/09/28 08:45:24;;;;;;;8.65;4.05;;;;;;;;;;5031092;28;20386;-70
2023/09/28 08:47:53;;;;;;;9.40;4.70;;;;;;;;;;5030584;28;20041;-70
2023/09/28 08:50:23;;;;;;;10.82;3.70;;;;;;;;;;5030764;28;20046;-69
2023/09/28 08:52:53;;;;;;;13.07;3.88;;;;;;;;;;5031207;28;20041;-72
2023/09/28 08:55:21;;;;;;;11.85;3.97;;;;;;;;;;5030615;28;20052;-69
2023/09/28 08:57:48;;;;;;;11.45;3.95;;;;;;;;;;5030706;28;20037;-69
2023/09/28 09:00:22;;;;;;;11.45;3.33;;;;;;;;;;5030335;28;20056;-68
2023/09/28 09:02:51;;;;;;;11.63;4.03;;;;;;;;;;5030173;28;20041;-69
2023/09/28 09:05:20;;;;;;;11.30;3.70;;;;;;;;;;5030337;28;20063;-69
2023/09/28 09:07:50;;;;;;;10.68;4.07;;;;;;;;;;5030447;28;20482;-69
2023/09/28 09:10:20;;;;;;;9.75;3.63;;;;;;;;;;5030270;28;20037;-69
2023/09/28 09:12:48;;;;;;;8.07;3.20;;;;;;;;;;5030180;28;20490;-69
2023/09/28 09:15:17;;;;;;;12.00;4.18;;;;;;;;;;5030733;28;20060;-69
2023/09/28 09:17:45;;;;;;;13.00;3.78;;;;;;;;;;5030247;28;20072;-69
2023/09/28 09:20:13;;;;;;;10.60;3.53;;;;;;;;;;5029744;28;20046;-69
2023/09/28 09:22:40;;;;;;;21.15;15.55;;;;;;;;;;5029956;28;20049;-69
2023/09/28 09:25:40;;;;;;;10.35;3.67;;;;;;;;;;5029928;28;20045;-69
2023/09/28 09:28:08;;;;;;;9.25;3.95;;;;;;;;;;5030029;28;20487;-69
2023/09/28 09:30:36;;;;;;;11.73;3.50;;;;;;;;;;5029998;28;20047;-69
2023/09/28 09:33:04;;;;;;;12.07;3.65;;;;;;;;;;5029829;28;20041;-69
2023/09/28 09:35:31;;;;;;;10.15;3.40;;;;;;;;;;5029960;28;20090;-68
2023/09/28 09:37:59;;;;;;;10.15;3.00;;;;;;;;;;5029952;28;20037;-69
2023/09/28 09:40:27;;;;;;;10.18;3.25;;;;;;;;;;5029671;28;20064;-68
2023/09/28 09:42:54;;;;;;;11.70;3.25;;;;;;;;;;5029646;28;20072;-69
2023/09/28 09:45:25;;;;;;;11.20;4.97;;;;;;;;;;5029813;28;20038;-69
2023/09/28 09:47:52;;;;;;;10.38;3.45;;;;;;;;;;5029828;28;20041;-71
2023/09/28 09:50:21;;;;;;;7.72;2.85;;;;;;;;;;5029640;28;20418;-70
2023/09/28 09:52:48;;;;;;;11.50;3.70;;;;;;;;;;5029722;28;20045;-70
2023/09/28 09:55:16;;;;;;;9.80;3.03;;;;;;;;;;5029739;28;20060;-71
2023/09/28 09:57:47;;;;;;;9.95;2.70;;;;;;;;;;5028399;28;20069;-70
2023/09/28 10:00:18;;;;;;;6.07;3.10;;;;;;;;;;5029592;28;20479;-71
2023/09/28 10:02:49;;;;;;;8.07;3.20;;;;;;;;;;5029580;28;20053;-71
2023/09/28 10:05:18;;;;;;;11.15;3.67;;;;;;;;;;5029551;28;20069;-71
2023/09/28 10:07:46;;;;;;;8.73;3.30;;;;;;;;;;5029425;28;20037;-71
2023/09/28 10:10:15;;;;;;;6.22;2.92;;;;;;;;;;5029810;28;20080;-70
2023/09/28 10:12:43;;;;;;;9.40;2.83;;;;;;;;;;5030363;28;20049;-71
2023/09/28 10:15:10;;;;;;;12.00;3.20;;;;;;;;;;5033599;28;20041;-70
2023/09/28 10:17:38;;;;;;;11.77;3.50;;;;;;;;;;5032920;28;20070;-70
2023/09/28 10:20:07;;;;;;;9.50;3.47;;;;;;;;;;5032928;28;20041;-70
2023/09/28 10:22:35;;;;;;;10.52;3.10;;;;;;;;;;5032873;28;20133;-71
2023/09/28 10:25:06;;;;;;;7.50;3.17;;;;;;;;;;5031539;28;20410;-70
2023/09/28 10:27:36;;;;;;;10.43;3.83;;;;;;;;;;5033187;28;20042;-69
2023/09/28 10:30:20;;;;;;;8.82;3.83;;;;;;;;;;5032644;28;20037;-70
2023/09/28 10:32:50;;;;;;;7.60;3.20;;;;;;;;;;5032909;28;20090;-70
2023/09/28 10:35:21;;;;;;;12.68;2.97;;;;;;;;;;5033107;28;20085;-71
2023/09/28 10:38:07;;;;;;;13.18;3.13;;;;;;;;;;5032768;28;20041;-71
2023/09/28 10:40:35;;;;;;;9.32;2.90;;;;;;;;;;5032571;28;20041;-71
2023/09/28 10:43:43;;;;;;;7.65;3.10;;;;;;;;;;5032453;28;20049;-71
2023/09/28 10:46:11;;;;;;;8.97;2.93;;;;;;;;;;5033115;28;20053;-71
2023/09/28 10:48:39;;;;;;;10.27;3.20;;;;;;;;;;5032765;28;20371;-70
2023/09/28 10:51:15;;;;;;;11.35;3.20;;;;;;;;;;5032566;28;20125;-71
2023/09/28 10:53:43;;;;;;;6.35;2.88;;;;;;;;;;5032554;28;20065;-70
2023/09/28 10:56:11;;;;;;;10.75;3.08;;;;;;;;;;5031179;28;20046;-70
2023/09/28 10:58:41;;;;;;;9.65;2.90;;;;;;;;;;5032481;28;20042;-70
2023/09/28 11:01:10;;;;;;;13.43;2.80;;;;;;;;;;5032242;28;20044;-70
2023/09/28 11:03:38;;;;;;;16.35;3.30;;;;;;;;;;5032383;28;20045;-71
2023/09/28 11:06:07;;;;;;;7.85;2.88;;;;;;;;;;5032521;28;20068;-71
2023/09/28 11:08:39;;;;;;;10.02;2.75;;;;;;;;;;5032160;28;20064;-70
2023/09/28 11:11:07;;;;;;;8.98;2.78;;;;;;;;;;5031975;28;20502;-70
2023/09/28 11:13:35;;;;;;;9.45;3.20;;;;;;;;;;5032222;28;20318;-70
2023/09/28 11:16:02;;;;;;;11.23;2.90;;;;;;;;;;5031981;28;20045;-70
2023/09/28 11:18:31;;;;;;;12.73;3.20;;;;;;;;;;5032055;28;20069;-70
2023/09/28 11:20:59;;;;;;;9.60;2.78;;;;;;;;;;5031731;28;20414;-70
2023/09/28 11:23:28;;;;;;;11.25;2.72;;;;;;;;;;5030606;28;20058;-69
2023/09/28 11:25:57;;;;;;;15.68;2.97;;;;;;;;;;5031310;28;20041;-70
2023/09/28 11:28:25;;;;;;;12.00;2.63;;;;;;;;;;5031730;28;20053;-69
2023/09/28 11:31:07;;;;;;;11.93;3.10;;;;;;;;;;5031862;28;20037;-71
2023/09/28 11:33:36;;;;;;;10.90;2.92;;;;;;;;;;5031812;28;20046;-70
2023/09/28 11:36:04;;;;;;;11.20;3.08;;;;;;;;;;5031917;28;20095;-69
2023/09/28 11:38:32;;;;;;;14.20;3.03;;;;;;;;;;5031799;28;20081;-69
2023/09/28 11:41:04;;;;;;;8.82;3.60;;;;;;;;;;5032020;28;20382;-70
2023/09/28 11:43:50;;;;;;;7.35;2.50;;;;;;;;;;5031556;28;20057;-69
2023/09/28 11:46:19;;;;;;;8.75;2.70;;;;;;;;;;5031728;28;20038;-70
2023/09/28 11:48:46;;;;;;;10.18;3.25;;;;;;;;;;5031637;28;20037;-70
2023/09/28 11:51:17;;;;;;;17.92;3.08;;;;;;;;;;5031541;28;20484;-69
2023/09/28 11:53:44;;;;;;;14.48;3.20;;;;;;;;;;5031498;28;20122;-69
2023/09/28 11:56:12;;;;;;;18.20;3.08;;;;;;;;;;5030320;28;20041;-69
2023/09/28 11:58:40;;;;;;;13.23;2.90;;;;;;;;;;5031489;28;20041;-70
2023/09/28 12:01:09;;;;;;;9.98;2.95;;;;;;;;;;5031438;28;20402;-70
2023/09/28 12:03:38;;;;;;;12.85;3.08;;;;;;;;;;5031448;28;20055;-69
2023/09/28 12:06:05;;;;;;;11.13;3.08;;;;;;;;;;5031643;28;20037;-69
2023/09/28 12:08:33;;;;;;;14.63;2.80;;;;;;;;;;5031276;28;20069;-69
2023/09/28 12:11:00;;;;;;;12.95;3.05;;;;;;;;;;5031185;28;20073;-69
2023/09/28 12:13:28;;;;;;;15.48;2.65;;;;;;;;;;5031365;28;20132;-69
2023/09/28 12:15:56;;;;;;;7.32;2.72;;;;;;;;;;5031296;28;20116;-69
2023/09/28 12:18:24;;;;;;;8.70;2.92;;;;;;;;;;5031094;28;20065;-70
2023/09/28 12:20:51;;;;;;;18.45;3.05;;;;;;;;;;5031208;28;20046;-71
2023/09/28 12:23:19;;;;;;;14.77;3.13;;;;;;;;;;5031048;28;20053;-70
2023/09/28 12:25:46;;;;;;;11.23;2.70;;;;;;;;;;5029830;28;20065;-70
2023/09/28 12:28:14;;;;;;;7.43;2.88;;;;;;;;;;5029866;28;20041;-68
2023/09/28 12:30:41;;;;;;;6.80;2.60;;;;;;;;;;5030965;28;20041;-71
2023/09/28 12:33:09;;;;;;;11.45;2.85;;;;;;;;;;5030830;28;20037;-70
2023/09/28 12:35:39;;;;;;;15.52;3.63;;;;;;;;;;5030022;28;20045;-70
2023/09/28 12:38:08;;;;;;;7.00;2.30;;;;;;;;;;5028975;28;20041;-70
2023/09/28 12:40:36;;;;;;;14.02;2.85;;;;;;;;;;5030696;28;20053;-68
2023/09/28 12:43:09;;;;;;;9.77;2.75;;;;;;;;;;5030733;28;20398;-69
2023/09/28 12:45:37;;;;;;;11.77;2.63;;;;;;;;;;5022770;28;20037;-69
2023/09/28 12:48:05;;;;;;;11.20;3.25;;;;;;;;;;5023302;28;20305;-68
2023/09/28 12:50:33;;;;;;;15.65;3.03;;;;;;;;;;5016167;28;20072;-68
2023/09/28 12:53:01;;;;;;;9.25;2.88;;;;;;;;;;5014829;28;20104;-68
2023/09/28 12:55:29;;;;;;;10.52;2.60;;;;;;;;;;5021547;28;20041;-69
2023/09/28 12:57:57;;;;;;;12.98;2.97;;;;;;;;;;5024612;28;20501;-70
2023/09/28 13:00:25;;;;;;;8.27;2.92;;;;;;;;;;5023687;28;20068;-68
2023/09/28 13:02:53;;;;;;;11.00;3.13;;;;;;;;;;5012725;28;20658;-67
2023/09/28 13:05:21;;;;;;;15.25;2.95;;;;;;;;;;5023654;28;20042;-68
2023/09/28 13:07:49;;;;;;;9.77;2.63;;;;;;;;;;5010714;28;20041;-68
2023/09/28 13:10:21;;;;;;;7.25;2.72;;;;;;;;;;5024714;28;20038;-72
2023/09/28 13:12:49;;;;;;;14.00;3.20;;;;;;;;;;5024867;28;20049;-69
2023/09/28 13:15:16;;;;;;;8.68;2.70;;;;;;;;;;5024922;28;20045;-64
2023/09/28 13:17:44;;;;;;;12.55;2.60;;;;;;;;;;5021787;28;20075;-64
2023/09/28 13:20:24;;;;;;;11.57;3.08;;;;;;;;;;5014077;28;20434;-69
2023/09/28 13:22:54;;;;;;;12.70;2.70;;;;;;;;;;5024590;28;20480;-70
2023/09/28 13:25:23;;;;;;;10.13;2.85;;;;;;;;;;5029191;28;20053;-67
2023/09/28 13:27:53;;;;;;;10.15;3.10;;;;;;;;;;5028907;28;20041;-68
2023/09/28 13:30:24;;;;;;;13.27;3.47;;;;;;;;;;5029937;28;20061;-67
2023/09/28 13:32:52;;;;;;;14.02;2.60;;;;;;;;;;5029783;28;20037;-63
2023/09/28 13:35:19;;;;;;;9.52;2.90;;;;;;;;;;5026922;28;20131;-65
2023/09/28 13:37:47;;;;;;;20.13;3.10;;;;;;;;;;5030056;28;20045;-65
2023/09/28 13:40:23;;;;;;;14.48;2.70;;;;;;;;;;5028112;28;20048;-62
2023/09/28 13:42:52;;;;;;;9.30;2.80;;;;;;;;;;5028981;28;20068;-65
2023/09/28 13:45:21;;;;;;;16.02;5.22;;;;;;;;;;5029335;28;20140;-65
2023/09/28 13:47:49;;;;;;;12.82;3.05;;;;;;;;;;5028650;28;20041;-64
2023/09/28 13:50:17;;;;;;;16.08;3.17;;;;;;;;;;5029517;28;20069;-64
2023/09/28 13:52:49;;;;;;;7.90;2.70;;;;;;;;;;5029847;28;20383;-64
2023/09/28 13:55:19;;;;;;;22.23;3.92;;;;;;;;;;5028333;28;20146;-64
2023/09/28 13:57:48;;;;;;;16.50;3.70;;;;;;;;;;5029876;28;20061;-64
2023/09/28 14:00:28;;;;;;;16.77;3.28;;;;;;;;;;5029495;28;20037;-64
2023/09/28 14:02:56;;;;;;;11.60;3.33;;;;;;;;;;5027572;28;20566;-64
2023/09/28 14:05:24;;;;;;;16.38;3.03;;;;;;;;;;5030142;28;20121;-64
2023/09/28 14:07:54;;;;;;;14.13;2.83;;;;;;;;;;5028922;28;20057;-64
2023/09/28 14:10:23;;;;;;;11.00;2.58;;;;;;;;;;5030485;28;20049;-64
2023/09/28 14:12:50;;;;;;;12.73;3.03;;;;;;;;;;5030068;28;20103;-64
2023/09/28 14:15:18;;;;;;;10.30;3.05;;;;;;;;;;5030211;28;20111;-64
2023/09/28 14:17:49;;;;;;;15.80;3.03;;;;;;;;;;5030209;28;20052;-64
2023/09/28 14:20:17;;;;;;;7.93;2.45;;;;;;;;;;5029925;28;20042;-64
2023/09/28 14:22:48;;;;;;;14.15;3.08;;;;;;;;;;5027946;28;20045;-64
2023/09/28 14:25:16;;;;;;;12.20;2.80;;;;;;;;;;5028594;28;20045;-65
2023/09/28 14:27:46;;;;;;;10.43;2.92;;;;;;;;;;5029362;28;20038;-65
2023/09/28 14:30:15;;;;;;;13.07;4.43;;;;;;;;;;5029295;28;20045;-64
2023/09/28 14:32:44;;;;;;;13.07;2.60;;;;;;;;;;5029261;28;20383;-64
2023/09/28 14:35:12;;;;;;;12.85;2.80;;;;;;;;;;5029599;28;20458;-64
2023/09/28 14:37:40;;;;;;;10.60;2.92;;;;;;;;;;5029825;28;20041;-64
2023/09/28 14:40:14;;;;;;;14.10;2.55;;;;;;;;;;5029802;28;20507;-64
2023/09/28 14:42:44;;;;;;;10.70;2.63;;;;;;;;;;5029815;28;20398;-64
2023/09/28 14:45:13;;;;;;;11.77;2.60;;;;;;;;;;5029889;28;20048;-64
2023/09/28 14:47:42;;;;;;;14.18;3.10;;;;;;;;;;5029841;28;20124;-64